21tokomaru — JK5486 — position and weather

sailwx.info

Track history (hours):
 
Tides and Currents Weather Stations Pressure Air Temp Water Temp Dewpoint Dewpoint Depression Visibility Wind Speed Wind Dir Waves Ship Positions

21tokomaru

Last reported at 2018-Feb-21 08:54 UTC. Time now 2018-Feb-21 09:42 UTC.
Position N 33°46' E 132°05'.

Length 84 m; draft 4.5 m.

Type: Cargo ship. MMSI: 431400727.

Date/timePositionNaut miles runAvg speedWind from/ knotsBaromVisibWave heightAir tempDewpointWater temp
2018-Feb-21 08:54N 33°46' E 132°05'1210.8
2018-Feb-21 07:50N 33°55' E 131°56'512.1
2018-Feb-21 07:27N 33°59' E 131°53'1 2.6
2018-Feb-21 06:57N 34°00' E 131°52'0 0.0
2018-Feb-21 06:30N 34°00' E 131°52'0 0.0
2018-Feb-21 04:53N 34°00' E 131°52'0 0.0
2018-Feb-20 22:00N 34°00' E 131°52'0 0.0
2018-Feb-20 21:24N 34°00' E 131°52'0 0.0
2018-Feb-20 20:54N 34°00' E 131°52'0 0.0
2018-Feb-20 20:30N 34°00' E 131°52'0 0.0
2018-Feb-20 19:48N 34°00' E 131°52'0 0.0
2018-Feb-20 19:18N 34°00' E 131°52'0 0.0
2018-Feb-20 18:42N 34°00' E 131°52'0 0.0
2018-Feb-20 18:24N 34°00' E 131°52'0 0.0
2018-Feb-20 17:42N 34°00' E 131°52'0 0.0
2018-Feb-20 17:30N 34°00' E 131°52'0 0.0
2018-Feb-20 17:00N 34°00' E 131°52'0 0.0
2018-Feb-20 11:48N 34°00' E 131°52'0 0.0
2018-Feb-20 11:18N 34°00' E 131°52'0 0.0
2018-Feb-20 11:00N 34°00' E 131°52'0 0.2
2018-Feb-20 09:46N 33°60' E 131°52'2 9.5
2018-Feb-20 09:30N 33°58' E 131°54'812.8
2018-Feb-20 08:54N 33°53' E 132°01'512.1
2018-Feb-20 08:30N 33°51' E 132°06'611.7
2018-Feb-20 07:58N 33°50' E 132°14'613.4
2018-Feb-20 07:30N 33°50' E 132°21'713.6
2018-Feb-20 07:00N 33°54' E 132°28'914.0
2018-Feb-20 06:23N 34°00' E 132°36'513.7
2018-Feb-20 06:00N 34°03' E 132°41'9111.7
2018-Feb-19 22:09N 34°27' E 134°27'212.7
2018-Feb-19 21:59N 34°28' E 134°30'612.8
2018-Feb-19 21:29N 34°30' E 134°37'612.5
2018-Feb-19 21:00N 34°32' E 134°44'611.8
2018-Feb-19 20:30N 34°34' E 134°51'510.5
2018-Feb-19 20:00N 34°37' E 134°56'5 8.9
2018-Feb-19 19:30N 34°37' E 135°02'4 8.3
2018-Feb-19 19:00N 34°34' E 135°05'611.7
2018-Feb-19 18:30N 34°28' E 135°03'611.8
2018-Feb-19 18:00N 34°22' E 135°01'611.2
2018-Feb-19 17:30N 34°17' E 134°59'611.5
2018-Feb-19 17:00N 34°11' E 134°60'612.2
2018-Feb-19 16:31N 34°05' E 134°60'612.0
2018-Feb-19 16:00N 33°59' E 135°00'711.9
2018-Feb-19 15:24N 33°52' E 135°02'113 9.3
2018-Feb-19 03:13N 34°41' E 137°06'312.4
2018-Feb-19 02:59N 34°42' E 137°09'  
2018-Feb-16 21:33N 34°44' E 137°15'0 0.1
2018-Feb-16 21:30N 34°44' E 137°15'0 0.0
2018-Feb-16 19:08N 34°44' E 137°15'0 0.0
2018-Feb-16 19:00N 34°44' E 137°15'0 0.0
2018-Feb-16 18:30N 34°44' E 137°15'0 0.0
2018-Feb-16 18:00N 34°44' E 137°15'0 0.0
2018-Feb-16 17:29N 34°44' E 137°15'0 0.0
2018-Feb-16 16:59N 34°44' E 137°15'0 0.0
2018-Feb-16 16:29N 34°44' E 137°15'0 0.0
2018-Feb-16 15:46N 34°44' E 137°15'0 0.2
2018-Feb-16 15:27N 34°44' E 137°14'0 0.0
2018-Feb-16 12:13N 34°44' E 137°14'0 0.0
2018-Feb-16 12:00N 34°44' E 137°14'0 0.0
2018-Feb-16 10:35N 34°44' E 137°15'0 0.0
2018-Feb-16 10:12N 34°44' E 137°15'0 0.0
2018-Feb-16 09:56N 34°44' E 137°15'1 0.2
2018-Feb-16 01:21N 34°43' E 137°13'0 0.0
2018-Feb-16 01:00N 34°43' E 137°13'0 0.0
2018-Feb-16 00:29N 34°43' E 137°13'0 0.0
2018-Feb-15 23:47N 34°43' E 137°13'11 9.8
2018-Feb-15 22:37N 34°39' E 137°01'111.3
2018-Feb-15 22:29N 34°38' E 136°59'10 9.0
2018-Feb-15 21:23N 34°33' E 137°10'411.8
2018-Feb-15 21:00N 34°33' E 137°15'3412.0
2018-Feb-15 18:12N 34°33' E 137°56'1210.7
2018-Feb-15 17:07N 34°33' E 138°11'2 9.9
2018-Feb-15 16:52N 34°33' E 138°13'4 9.9
2018-Feb-15 16:29N 34°33' E 138°18'610.4
2018-Feb-15 15:52N 34°34' E 138°26'410.0
2018-Feb-15 15:27N 34°34' E 138°31'6 9.9
2018-Feb-15 14:48N 34°34' E 138°39'310.0
2018-Feb-15 14:28N 34°35' E 138°43'510.1
2018-Feb-15 13:58N 34°35' E 138°49'510.1
2018-Feb-15 13:30N 34°35' E 138°54'7 9.8
2018-Feb-15 12:49N 34°39' E 139°01'310.7
2018-Feb-15 12:30N 34°41' E 139°05'611.3
2018-Feb-15 12:01N 34°44' E 139°11'510.5
2018-Feb-15 11:30N 34°47' E 139°16'5 9.7
2018-Feb-15 10:59N 34°49' E 139°21'34 9.5
2018-Feb-15 07:23N 34°56' E 140°02'4 9.6
2018-Feb-15 06:58N 34°58' E 140°06'  
2018-Feb-13 00:04N 34°58' E 140°07'1611.7
2018-Feb-12 22:40N 34°53' E 139°48'613.2
2018-Feb-12 22:11N 34°56' E 139°41'210.8
2018-Feb-12 22:00N 34°58' E 139°42'511.1
2018-Feb-12 21:31N 35°03' E 139°44'611.4
2018-Feb-12 21:00N 35°09' E 139°45'612.3
2018-Feb-12 20:31N 35°15' E 139°46'612.3
2018-Feb-12 20:00N 35°21' E 139°42'611.6
2018-Feb-12 19:30N 35°26' E 139°45'611.9
2018-Feb-12 19:00N 35°29' E 139°51'1012.2
2018-Feb-12 18:13N 35°37' E 139°58'3 0.2
2018-Feb-11 20:28N 35°40' E 139°57'5 9.9
2018-Feb-11 19:59N 35°36' E 139°57'711.7
2018-Feb-11 19:21N 35°29' E 139°52'411.7
2018-Feb-11 19:00N 35°26' E 139°49'611.4
2018-Feb-11 18:31N 35°22' E 139°45'510.8
2018-Feb-11 18:00N 35°16' E 139°46'611.7
2018-Feb-11 17:30N 35°10' E 139°47'711.9
2018-Feb-11 16:53N 35°04' E 139°41'512.2
2018-Feb-11 16:30N 35°02' E 139°37'1412.4
2018-Feb-11 15:23N 34°56' E 139°21'612.9
2018-Feb-11 14:54N 34°53' E 139°15'712.9
2018-Feb-11 14:23N 34°48' E 139°10'612.3
2018-Feb-11 13:53N 34°43' E 139°06'512.4
2018-Feb-11 13:30N 34°39' E 139°02'612.0
2018-Feb-11 13:00N 34°35' E 138°56'713.0
2018-Feb-11 12:28N 34°34' E 138°48'612.0
2018-Feb-11 11:59N 34°33' E 138°41'611.9
2018-Feb-11 11:27N 34°33' E 138°33'812.1
2018-Feb-11 10:49N 34°32' E 138°24'512.1
2018-Feb-11 10:22N 34°32' E 138°18'512.6
2018-Feb-11 10:00N 34°31' E 138°12'  
Track history (hours):
 
Tides and Currents Weather Stations Pressure Air Temp Water Temp Dewpoint Dewpoint Depression Visibility Wind Speed Wind Dir Waves Ship Positions

21tokomaru

Last reported at 2018-Feb-21 08:54 UTC. Time now 2018-Feb-21 09:42 UTC.
Position N 33°46' E 132°05'.

Length 84 m; draft 4.5 m.

Type: Cargo ship. MMSI: 431400727.

Date/timePositionNaut miles runAvg speedWind from/ knotsBaromVisibWave heightAir tempDewpointWater temp
2018-Feb-21 08:54N 33°46' E 132°05'1210.8
2018-Feb-21 07:50N 33°55' E 131°56'512.1
2018-Feb-21 07:27N 33°59' E 131°53'1 2.6
2018-Feb-21 06:57N 34°00' E 131°52'0 0.0
2018-Feb-21 06:30N 34°00' E 131°52'0 0.0
2018-Feb-21 04:53N 34°00' E 131°52'0 0.0
2018-Feb-20 22:00N 34°00' E 131°52'0 0.0
2018-Feb-20 21:24N 34°00' E 131°52'0 0.0
2018-Feb-20 20:54N 34°00' E 131°52'0 0.0
2018-Feb-20 20:30N 34°00' E 131°52'0 0.0
2018-Feb-20 19:48N 34°00' E 131°52'0 0.0
2018-Feb-20 19:18N 34°00' E 131°52'0 0.0
2018-Feb-20 18:42N 34°00' E 131°52'0 0.0
2018-Feb-20 18:24N 34°00' E 131°52'0 0.0
2018-Feb-20 17:42N 34°00' E 131°52'0 0.0
2018-Feb-20 17:30N 34°00' E 131°52'0 0.0
2018-Feb-20 17:00N 34°00' E 131°52'0 0.0
2018-Feb-20 11:48N 34°00' E 131°52'0 0.0
2018-Feb-20 11:18N 34°00' E 131°52'0 0.0
2018-Feb-20 11:00N 34°00' E 131°52'0 0.2
2018-Feb-20 09:46N 33°60' E 131°52'2 9.5
2018-Feb-20 09:30N 33°58' E 131°54'812.8
2018-Feb-20 08:54N 33°53' E 132°01'512.1
2018-Feb-20 08:30N 33°51' E 132°06'611.7
2018-Feb-20 07:58N 33°50' E 132°14'613.4
2018-Feb-20 07:30N 33°50' E 132°21'713.6
2018-Feb-20 07:00N 33°54' E 132°28'914.0
2018-Feb-20 06:23N 34°00' E 132°36'513.7
2018-Feb-20 06:00N 34°03' E 132°41'9111.7
2018-Feb-19 22:09N 34°27' E 134°27'212.7
2018-Feb-19 21:59N 34°28' E 134°30'612.8
2018-Feb-19 21:29N 34°30' E 134°37'612.5
2018-Feb-19 21:00N 34°32' E 134°44'611.8
2018-Feb-19 20:30N 34°34' E 134°51'510.5
2018-Feb-19 20:00N 34°37' E 134°56'5 8.9
2018-Feb-19 19:30N 34°37' E 135°02'4 8.3
2018-Feb-19 19:00N 34°34' E 135°05'611.7
2018-Feb-19 18:30N 34°28' E 135°03'611.8
2018-Feb-19 18:00N 34°22' E 135°01'611.2
2018-Feb-19 17:30N 34°17' E 134°59'611.5
2018-Feb-19 17:00N 34°11' E 134°60'612.2
2018-Feb-19 16:31N 34°05' E 134°60'612.0
2018-Feb-19 16:00N 33°59' E 135°00'711.9
2018-Feb-19 15:24N 33°52' E 135°02'113 9.3
2018-Feb-19 03:13N 34°41' E 137°06'312.4
2018-Feb-19 02:59N 34°42' E 137°09'  
2018-Feb-16 21:33N 34°44' E 137°15'0 0.1
2018-Feb-16 21:30N 34°44' E 137°15'0 0.0
2018-Feb-16 19:08N 34°44' E 137°15'0 0.0
2018-Feb-16 19:00N 34°44' E 137°15'0 0.0
2018-Feb-16 18:30N 34°44' E 137°15'0 0.0
2018-Feb-16 18:00N 34°44' E 137°15'0 0.0
2018-Feb-16 17:29N 34°44' E 137°15'0 0.0
2018-Feb-16 16:59N 34°44' E 137°15'0 0.0
2018-Feb-16 16:29N 34°44' E 137°15'0 0.0
2018-Feb-16 15:46N 34°44' E 137°15'0 0.2
2018-Feb-16 15:27N 34°44' E 137°14'0 0.0
2018-Feb-16 12:13N 34°44' E 137°14'0 0.0
2018-Feb-16 12:00N 34°44' E 137°14'0 0.0
2018-Feb-16 10:35N 34°44' E 137°15'0 0.0
2018-Feb-16 10:12N 34°44' E 137°15'0 0.0
2018-Feb-16 09:56N 34°44' E 137°15'1 0.2
2018-Feb-16 01:21N 34°43' E 137°13'0 0.0
2018-Feb-16 01:00N 34°43' E 137°13'0 0.0
2018-Feb-16 00:29N 34°43' E 137°13'0 0.0
2018-Feb-15 23:47N 34°43' E 137°13'11 9.8
2018-Feb-15 22:37N 34°39' E 137°01'111.3
2018-Feb-15 22:29N 34°38' E 136°59'10 9.0
2018-Feb-15 21:23N 34°33' E 137°10'411.8
2018-Feb-15 21:00N 34°33' E 137°15'3412.0
2018-Feb-15 18:12N 34°33' E 137°56'1210.7
2018-Feb-15 17:07N 34°33' E 138°11'2 9.9
2018-Feb-15 16:52N 34°33' E 138°13'4 9.9
2018-Feb-15 16:29N 34°33' E 138°18'610.4
2018-Feb-15 15:52N 34°34' E 138°26'410.0
2018-Feb-15 15:27N 34°34' E 138°31'6 9.9
2018-Feb-15 14:48N 34°34' E 138°39'310.0
2018-Feb-15 14:28N 34°35' E 138°43'510.1
2018-Feb-15 13:58N 34°35' E 138°49'510.1
2018-Feb-15 13:30N 34°35' E 138°54'7 9.8
2018-Feb-15 12:49N 34°39' E 139°01'310.7
2018-Feb-15 12:30N 34°41' E 139°05'611.3
2018-Feb-15 12:01N 34°44' E 139°11'510.5
2018-Feb-15 11:30N 34°47' E 139°16'5 9.7
2018-Feb-15 10:59N 34°49' E 139°21'34 9.5
2018-Feb-15 07:23N 34°56' E 140°02'4 9.6
2018-Feb-15 06:58N 34°58' E 140°06'  
2018-Feb-13 00:04N 34°58' E 140°07'1611.7
2018-Feb-12 22:40N 34°53' E 139°48'613.2
2018-Feb-12 22:11N 34°56' E 139°41'210.8
2018-Feb-12 22:00N 34°58' E 139°42'511.1
2018-Feb-12 21:31N 35°03' E 139°44'611.4
2018-Feb-12 21:00N 35°09' E 139°45'612.3
2018-Feb-12 20:31N 35°15' E 139°46'612.3
2018-Feb-12 20:00N 35°21' E 139°42'611.6
2018-Feb-12 19:30N 35°26' E 139°45'611.9
2018-Feb-12 19:00N 35°29' E 139°51'1012.2
2018-Feb-12 18:13N 35°37' E 139°58'3 0.2
2018-Feb-11 20:28N 35°40' E 139°57'5 9.9
2018-Feb-11 19:59N 35°36' E 139°57'711.7
2018-Feb-11 19:21N 35°29' E 139°52'411.7
2018-Feb-11 19:00N 35°26' E 139°49'611.4
2018-Feb-11 18:31N 35°22' E 139°45'510.8
2018-Feb-11 18:00N 35°16' E 139°46'611.7
2018-Feb-11 17:30N 35°10' E 139°47'711.9
2018-Feb-11 16:53N 35°04' E 139°41'512.2
2018-Feb-11 16:30N 35°02' E 139°37'1412.4
2018-Feb-11 15:23N 34°56' E 139°21'612.9
2018-Feb-11 14:54N 34°53' E 139°15'712.9
2018-Feb-11 14:23N 34°48' E 139°10'612.3
2018-Feb-11 13:53N 34°43' E 139°06'512.4
2018-Feb-11 13:30N 34°39' E 139°02'612.0
2018-Feb-11 13:00N 34°35' E 138°56'713.0
2018-Feb-11 12:28N 34°34' E 138°48'612.0
2018-Feb-11 11:59N 34°33' E 138°41'611.9
2018-Feb-11 11:27N 34°33' E 138°33'812.1
2018-Feb-11 10:49N 34°32' E 138°24'512.1
2018-Feb-11 10:22N 34°32' E 138°18'512.6
2018-Feb-11 10:00N 34°31' E 138°12'  

Dump ship's entire track history